Time;durP1;ratioP1;P1;durP2;ratioP2;P2;SDS_P1;SDS_P2;PMS_P1;PMS_P2;Temp;Humidity;BMP_temperature;BMP_pressure;BME280_temperature;BME280_humidity;BME280_pressure;Samples;Min_cycle;Max_cycle;Signal;HPM_P1;HPM_P2
2023/12/10 00:02:17;;;;;;;10.40;1.83;;;8.10;99.90;;;;;;5051262;28;20089;-82
2023/12/10 00:04:43;;;;;;;12.85;2.13;;;8.10;99.90;;;;;;5062164;28;20048;-82
2023/12/10 00:07:10;;;;;;;9.57;1.58;;;8.10;99.90;;;;;;5054601;28;20033;-82
2023/12/10 00:09:36;;;;;;;5.38;1.33;;;8.10;99.90;;;;;;5073307;28;20486;-82
2023/12/10 00:12:03;;;;;;;10.18;1.77;;;8.10;99.90;;;;;;5053537;28;20343;-82
2023/12/10 00:14:29;;;;;;;11.40;1.63;;;8.20;99.90;;;;;;5070465;28;20071;-82
2023/12/10 00:16:56;;;;;;;7.35;1.63;;;8.30;99.90;;;;;;5066529;28;20064;-81
2023/12/10 00:19:22;;;;;;;9.38;1.15;;;8.30;99.90;;;;;;5058815;28;20119;-81
2023/12/10 00:21:48;;;;;;;6.53;1.85;;;8.40;99.90;;;;;;5072190;28;20076;-81
2023/12/10 00:24:14;;;;;;;3.03;1.98;;;8.40;99.90;;;;;;5056101;28;20032;-82
2023/12/10 00:26:39;;;;;;;14.70;1.80;;;8.40;99.90;;;;;;5078797;28;20074;-82
2023/12/10 00:29:05;;;;;;;4.00;0.68;;;8.50;99.90;;;;;;5069320;28;20043;-82
2023/12/10 00:31:31;;;;;;;6.80;1.58;;;8.50;99.90;;;;;;5062578;28;20040;-82
2023/12/10 00:34:00;;;;;;;2.87;0.87;;;8.40;99.90;;;;;;5066353;28;20036;-82
2023/12/10 00:36:26;;;;;;;3.88;1.42;;;8.40;99.90;;;;;;5068662;28;20310;-82
2023/12/10 00:38:55;;;;;;;10.35;0.90;;;8.30;99.90;;;;;;5051178;28;20558;-82
2023/12/10 00:41:21;;;;;;;5.28;0.88;;;8.30;99.90;;;;;;5064700;28;20040;-82
2023/12/10 00:43:47;;;;;;;13.25;1.67;;;8.20;99.90;;;;;;5055486;28;20045;-82
2023/12/10 00:46:13;;;;;;;4.82;0.82;;;8.20;99.90;;;;;;5063961;28;20528;-82
2023/12/10 00:48:40;;;;;;;5.43;1.55;;;8.20;99.90;;;;;;5046784;28;20075;-82
2023/12/10 00:51:06;;;;;;;3.72;1.10;;;8.10;99.90;;;;;;5065405;28;20111;-82
2023/12/10 00:53:32;;;;;;;9.25;1.95;;;8.10;99.90;;;;;;5067205;28;20402;-82
2023/12/10 00:55:58;;;;;;;12.23;1.75;;;8.10;99.90;;;;;;5081377;28;20518;-82
2023/12/10 00:58:24;;;;;;;3.88;0.98;;;8.00;99.90;;;;;;5046654;28;20053;-82
2023/12/10 01:00:50;;;;;;;6.45;1.02;;;8.00;99.90;;;;;;5051967;28;20505;-82
2023/12/10 01:03:15;;;;;;;5.72;1.40;;;8.00;99.90;;;;;;5071396;28;20032;-82
2023/12/10 01:05:41;;;;;;;5.95;1.73;;;7.90;99.90;;;;;;5064570;28;20033;-82
2023/12/10 01:08:13;;;;;;;9.57;1.10;;;7.90;99.90;;;;;;5066040;28;20068;-82
2023/12/10 01:10:39;;;;;;;9.02;1.48;;;7.90;99.90;;;;;;5075856;28;20130;-82
2023/12/10 01:20:22;;;;;;;15.80;1.95;;;7.90;99.90;;;;;;5066898;28;20127;-82
2023/12/10 01:22:48;;;;;;;11.63;2.38;;;7.90;99.90;;;;;;5061540;28;20099;-82
2023/12/10 01:25:14;;;;;;;6.65;1.30;;;7.80;99.90;;;;;;5065323;28;20105;-82
2023/12/10 01:27:40;;;;;;;4.47;2.05;;;7.80;99.90;;;;;;5061422;28;20498;-82
2023/12/10 01:30:07;;;;;;;9.65;0.85;;;7.90;99.90;;;;;;5067051;28;20044;-82
2023/12/10 01:32:33;;;;;;;4.30;0.85;;;7.90;99.90;;;;;;5047192;28;20040;-82
2023/12/10 01:34:59;;;;;;;6.43;1.27;;;7.80;99.90;;;;;;5068505;28;20036;-82
2023/12/10 01:37:24;;;;;;;7.25;1.38;;;7.90;99.90;;;;;;5045305;28;20060;-82
2023/12/10 01:39:50;;;;;;;9.23;1.25;;;7.80;99.90;;;;;;5061167;28;20029;-81
2023/12/10 01:42:17;;;;;;;9.60;1.17;;;7.80;99.90;;;;;;5043742;28;20525;-81
2023/12/10 01:44:43;;;;;;;4.53;0.80;;;7.80;99.90;;;;;;5064058;28;20072;-81
2023/12/10 01:47:10;;;;;;;10.13;1.48;;;7.80;99.90;;;;;;5068447;28;20066;-81
2023/12/10 01:49:37;;;;;;;13.82;2.17;;;7.80;99.90;;;;;;5070442;28;20040;-81
2023/12/10 01:52:03;;;;;;;12.82;1.73;;;7.80;99.90;;;;;;5067730;28;20105;-82
2023/12/10 01:54:29;;;;;;;10.52;1.88;;;7.80;99.90;;;;;;5046233;28;20490;-82
2023/12/10 01:56:55;;;;;;;8.55;1.08;;;7.80;99.90;;;;;;5061060;28;20050;-82
2023/12/10 01:59:22;;;;;;;6.90;2.03;;;7.80;99.90;;;;;;5084972;28;20035;-82
2023/12/10 02:01:48;;;;;;;13.15;1.52;;;7.70;99.90;;;;;;5056623;28;20114;-82
2023/12/10 02:04:16;;;;;;;8.35;2.40;;;7.70;99.90;;;;;;5058801;28;20115;-82
2023/12/10 02:06:42;;;;;;;6.65;1.48;;;7.80;99.90;;;;;;5082948;28;20043;-82
2023/12/10 02:09:10;;;;;;;7.85;1.67;;;7.70;99.90;;;;;;5075609;28;20036;-81
2023/12/10 02:11:36;;;;;;;8.07;3.20;;;7.70;99.90;;;;;;5078573;28;20048;-81
2023/12/10 02:14:04;;;;;;;5.55;0.95;;;7.70;99.90;;;;;;5062757;28;20502;-81
2023/12/10 02:16:30;;;;;;;6.30;1.10;;;7.70;99.90;;;;;;5058662;28;20067;-81
2023/12/10 02:18:55;;;;;;;9.02;1.80;;;7.70;99.90;;;;;;5077522;28;20062;-82
2023/12/10 02:21:21;;;;;;;8.65;2.72;;;7.70;99.90;;;;;;5053491;28;20032;-82
2023/12/10 02:23:57;;;;;;;8.80;1.38;;;7.70;99.90;;;;;;5065595;28;20040;-82
2023/12/10 02:26:23;;;;;;;9.02;1.55;;;7.60;99.90;;;;;;5077451;28;20490;-82
2023/12/10 02:28:49;;;;;;;9.13;1.95;;;7.60;99.90;;;;;;5055089;28;20044;-82
2023/12/10 02:31:18;;;;;;;6.65;1.17;;;7.60;99.90;;;;;;5049111;28;20119;-82
2023/12/10 02:33:44;;;;;;;3.05;0.98;;;7.60;99.90;;;;;;5050680;28;20118;-82
2023/12/10 02:36:10;;;;;;;6.03;1.05;;;7.60;99.90;;;;;;5055819;28;20036;-84
2023/12/10 02:38:36;;;;;;;6.85;1.45;;;7.60;99.90;;;;;;5054990;28;20039;-84
2023/12/10 02:41:01;;;;;;;9.13;1.38;;;7.60;99.90;;;;;;5070638;28;20032;-84
2023/12/10 02:43:27;;;;;;;5.40;1.33;;;7.60;99.90;;;;;;5042280;28;20070;-84
2023/12/10 02:45:53;;;;;;;14.10;2.15;;;7.60;99.90;;;;;;5043573;28;20055;-83
2023/12/10 02:48:21;;;;;;;6.60;1.23;;;7.60;99.90;;;;;;5057674;28;20036;-82
2023/12/10 02:50:51;;;;;;;3.67;1.48;;;7.60;99.90;;;;;;5093143;28;20529;-82
2023/12/10 02:53:17;;;;;;;3.00;1.45;;;7.60;99.90;;;;;;5057488;28;20039;-82
2023/12/10 02:55:43;;;;;;;11.05;1.83;;;7.50;99.90;;;;;;5043367;28;20059;-83
2023/12/10 02:58:09;;;;;;;9.30;1.55;;;7.50;99.90;;;;;;5071687;28;20040;-82
2023/12/10 03:00:35;;;;;;;4.28;1.30;;;7.60;99.90;;;;;;5054555;28;20521;-83
2023/12/10 03:03:01;;;;;;;1.52;0.82;;;7.60;99.90;;;;;;5071786;28;20123;-83
2023/12/10 03:05:27;;;;;;;14.82;2.00;;;7.60;99.90;;;;;;5059224;28;20036;-83
2023/12/10 03:07:53;;;;;;;4.97;0.85;;;7.60;99.90;;;;;;5051308;28;20044;-82
2023/12/10 03:10:20;;;;;;;1.50;0.57;;;7.60;99.90;;;;;;5040951;28;20036;-82
2023/12/10 03:12:46;;;;;;;7.32;1.48;;;7.60;99.90;;;;;;5065142;28;20046;-82
2023/12/10 03:15:12;;;;;;;2.38;0.98;;;7.60;99.90;;;;;;5061772;28;20398;-82
2023/12/10 03:17:38;;;;;;;6.70;1.33;;;7.60;99.90;;;;;;5061292;28;20071;-82
2023/12/10 03:20:04;;;;;;;7.70;0.93;;;7.60;99.90;;;;;;5056955;28;20083;-82
2023/12/10 03:22:31;;;;;;;11.50;1.65;;;7.60;99.90;;;;;;5073094;28;20107;-82
2023/12/10 03:24:57;;;;;;;11.65;1.52;;;7.60;99.90;;;;;;5047323;28;20037;-82
2023/12/10 03:27:23;;;;;;;3.38;1.05;;;7.60;99.90;;;;;;5077477;28;20430;-82
2023/12/10 03:29:48;;;;;;;2.35;0.85;;;7.60;99.90;;;;;;5076295;28;20035;-82
2023/12/10 03:32:15;;;;;;;3.65;1.55;;;7.60;99.90;;;;;;5057221;28;20045;-82
2023/12/10 03:34:41;;;;;;;5.40;1.75;;;7.60;99.90;;;;;;5056170;28;20407;-82
2023/12/10 03:37:08;;;;;;;7.25;0.70;;;7.60;99.90;;;;;;5052209;28;20043;-82
2023/12/10 03:39:34;;;;;;;3.78;1.52;;;7.60;99.90;;;;;;5078924;28;20368;-82
2023/12/10 03:42:00;;;;;;;4.93;1.65;;;7.70;99.90;;;;;;5095291;28;20449;-82
2023/12/10 03:44:26;;;;;;;2.33;0.75;;;7.70;99.90;;;;;;5060482;28;20047;-82
2023/12/10 03:46:52;;;;;;;1.55;0.95;;;7.70;99.90;;;;;;5041694;28;20040;-82
2023/12/10 03:49:17;;;;;;;11.70;1.42;;;7.70;99.90;;;;;;5080124;28;20097;-82
2023/12/10 03:51:43;;;;;;;7.10;0.98;;;7.80;99.90;;;;;;5043390;28;20036;-82
2023/12/10 03:54:09;;;;;;;5.28;1.00;;;7.80;99.90;;;;;;5057348;28;20127;-81
2023/12/10 03:56:35;;;;;;;4.18;1.27;;;7.80;99.90;;;;;;5069622;28;20134;-81
2023/12/10 03:59:01;;;;;;;3.45;1.10;;;7.90;99.90;;;;;;5060466;28;20028;-81
2023/12/10 04:01:27;;;;;;;2.50;0.65;;;7.90;99.90;;;;;;5057656;28;20032;-81
2023/12/10 04:03:52;;;;;;;8.60;1.25;;;7.90;99.90;;;;;;5075016;28;20367;-81
2023/12/10 04:06:18;;;;;;;8.70;0.70;;;7.90;99.90;;;;;;5055265;28;20139;-81
2023/12/10 04:08:44;;;;;;;4.53;0.73;;;7.90;99.90;;;;;;5039051;28;20033;-81
2023/12/10 04:11:10;;;;;;;5.40;0.70;;;8.00;99.90;;;;;;5055386;28;20051;-81
2023/12/10 04:13:36;;;;;;;2.22;0.57;;;8.00;99.90;;;;;;5073755;28;20379;-81
2023/12/10 04:16:02;;;;;;;4.68;1.48;;;8.00;99.90;;;;;;5073623;28;20081;-81
2023/12/10 04:18:27;;;;;;;5.50;1.17;;;8.00;99.90;;;;;;5060158;28;20127;-81
2023/12/10 04:20:53;;;;;;;8.93;1.48;;;8.00;99.90;;;;;;5053890;28;20071;-81
2023/12/10 04:23:19;;;;;;;2.45;0.95;;;8.00;99.90;;;;;;5069821;28;20032;-81
2023/12/10 04:25:45;;;;;;;4.85;1.23;;;8.00;99.90;;;;;;5059676;28;20036;-81
2023/12/10 04:28:11;;;;;;;3.90;1.95;;;8.10;99.90;;;;;;5074288;28;20040;-81
2023/12/10 04:30:36;;;;;;;9.20;1.80;;;8.10;99.90;;;;;;5056238;28;20387;-81
2023/12/10 04:33:04;;;;;;;2.90;0.45;;;8.20;99.90;;;;;;5070419;28;20040;-81
2023/12/10 04:35:30;;;;;;;7.32;1.85;;;8.20;99.90;;;;;;5056619;28;20041;-81
2023/12/10 04:37:56;;;;;;;7.38;1.65;;;8.20;99.90;;;;;;5064002;28;20091;-81
2023/12/10 04:40:25;;;;;;;10.00;1.60;;;8.20;99.90;;;;;;5052067;28;20493;-81
2023/12/10 04:42:51;;;;;;;7.05;1.90;;;8.20;99.90;;;;;;5075235;28;20468;-81
2023/12/10 04:45:16;;;;;;;4.47;0.70;;;8.30;99.90;;;;;;5058918;28;20115;-81
2023/12/10 04:47:42;;;;;;;4.65;1.52;;;8.30;99.90;;;;;;5054959;28;20122;-81
2023/12/10 04:50:08;;;;;;;5.88;1.30;;;8.30;99.90;;;;;;5063512;28;20036;-81
2023/12/10 04:52:34;;;;;;;7.57;1.60;;;8.20;99.90;;;;;;5061930;28;20444;-81
2023/12/10 04:55:00;;;;;;;6.47;1.02;;;8.20;99.90;;;;;;5056652;28;20146;-81
2023/12/10 04:57:26;;;;;;;6.13;1.63;;;8.20;99.90;;;;;;5055722;28;20040;-81
2023/12/10 04:59:52;;;;;;;15.60;2.55;;;8.20;99.90;;;;;;5073140;28;20032;-81
2023/12/10 05:02:18;;;;;;;15.68;2.45;;;8.20;99.90;;;;;;5051528;28;20040;-81
2023/12/10 05:04:44;;;;;;;6.55;1.50;;;8.20;99.90;;;;;;5061610;28;20512;-81
2023/12/10 05:07:10;;;;;;;12.95;2.63;;;8.20;99.90;;;;;;5068273;28;20036;-81
2023/12/10 05:09:36;;;;;;;7.40;1.02;;;8.20;99.90;;;;;;5056994;28;20040;-82
2023/12/10 05:12:02;;;;;;;9.18;2.60;;;8.20;99.90;;;;;;5054671;28;20036;-82
2023/12/10 05:14:27;;;;;;;9.82;1.75;;;8.20;99.90;;;;;;5048258;28;20439;-82
2023/12/10 05:16:53;;;;;;;7.00;1.42;;;8.20;99.90;;;;;;5035552;28;20047;-81
2023/12/10 05:19:19;;;;;;;10.15;1.48;;;8.30;99.90;;;;;;5057531;28;20136;-83
2023/12/10 05:21:45;;;;;;;4.53;0.98;;;8.20;99.90;;;;;;5056502;28;20512;-82
2023/12/10 05:24:11;;;;;;;3.75;1.17;;;8.20;99.90;;;;;;5055446;28;20032;-82
2023/12/10 05:26:38;;;;;;;7.47;1.83;;;8.20;99.90;;;;;;5053269;28;20035;-82
2023/12/10 05:29:04;;;;;;;5.75;0.77;;;8.30;99.90;;;;;;5051763;28;20058;-82
2023/12/10 05:31:30;;;;;;;5.30;1.27;;;8.30;99.90;;;;;;5054737;28;20474;-82
2023/12/10 05:33:55;;;;;;;5.50;1.00;;;8.30;99.90;;;;;;5069926;28;20036;-82
2023/12/10 05:36:21;;;;;;;3.30;1.27;;;8.40;99.90;;;;;;5054147;28;20032;-82
2023/12/10 05:38:47;;;;;;;4.95;0.95;;;8.40;99.90;;;;;;5065723;28;20113;-82
2023/12/10 05:41:13;;;;;;;5.38;1.40;;;8.40;99.90;;;;;;5055191;28;20043;-82
2023/12/10 05:43:38;;;;;;;3.70;2.00;;;8.40;99.90;;;;;;5056670;28;20508;-81
2023/12/10 05:46:04;;;;;;;10.63;2.15;;;8.40;99.90;;;;;;5073138;28;20118;-82
2023/12/10 05:48:30;;;;;;;11.93;1.25;;;8.40;99.90;;;;;;5053450;28;20032;-82
2023/12/10 05:50:56;;;;;;;6.28;1.25;;;8.40;99.90;;;;;;5073503;28;20039;-82
2023/12/10 05:53:22;;;;;;;12.35;1.58;;;8.40;99.90;;;;;;5044817;28;20036;-82
2023/12/10 05:55:48;;;;;;;10.23;2.95;;;8.40;99.90;;;;;;5038977;28;20474;-82
2023/12/10 05:58:14;;;;;;;11.13;2.15;;;8.40;99.90;;;;;;5072367;28;20123;-82
2023/12/10 06:00:39;;;;;;;8.68;1.67;;;8.40;99.90;;;;;;5054201;28;20486;-82
2023/12/10 06:03:05;;;;;;;10.18;2.40;;;8.40;99.90;;;;;;5057172;28;20035;-82
2023/12/10 06:05:31;;;;;;;9.57;2.22;;;8.40;99.90;;;;;;5082541;28;20040;-82
2023/12/10 06:07:57;;;;;;;25.25;2.60;;;8.40;99.90;;;;;;5057885;28;20090;-82
2023/12/10 06:10:23;;;;;;;13.23;2.75;;;8.50;99.90;;;;;;5048797;28;20043;-82
2023/12/10 06:12:50;;;;;;;6.38;1.08;;;8.40;99.90;;;;;;5053858;28;20109;-82
2023/12/10 06:15:16;;;;;;;5.90;1.02;;;8.40;99.90;;;;;;5036881;28;20111;-82
2023/12/10 06:17:41;;;;;;;9.82;2.83;;;8.50;99.90;;;;;;5047159;28;20124;-82
2023/12/10 06:20:08;;;;;;;12.88;2.25;;;8.50;99.90;;;;;;5056489;28;20039;-82
2023/12/10 06:22:34;;;;;;;10.70;1.77;;;8.50;99.90;;;;;;5056315;28;20397;-82
2023/12/10 06:25:00;;;;;;;12.60;2.17;;;8.50;99.90;;;;;;5080078;28;20101;-82
2023/12/10 06:27:25;;;;;;;16.33;2.22;;;8.50;99.90;;;;;;5063787;28;20045;-82
2023/12/10 06:29:51;;;;;;;17.67;2.40;;;8.50;99.90;;;;;;5071741;28;20040;-82
2023/12/10 06:32:17;;;;;;;10.55;2.03;;;8.50;99.90;;;;;;5053480;28;20097;-83
2023/12/10 06:34:43;;;;;;;13.60;2.25;;;8.50;99.90;;;;;;5057166;28;20087;-83
2023/12/10 06:37:09;;;;;;;10.70;2.67;;;8.40;99.90;;;;;;5048518;28;20047;-82
2023/12/10 06:39:35;;;;;;;5.30;1.50;;;8.50;99.90;;;;;;5041412;28;20332;-83
2023/12/10 06:42:01;;;;;;;2.58;1.08;;;8.50;99.90;;;;;;5073191;28;20035;-83
2023/12/10 06:44:27;;;;;;;10.20;2.15;;;8.40;99.90;;;;;;5040282;28;20044;-83
2023/12/10 06:46:53;;;;;;;7.18;2.05;;;8.40;99.90;;;;;;5091158;28;20040;-82
2023/12/10 06:49:19;;;;;;;10.52;2.25;;;8.40;99.90;;;;;;5071925;28;20035;-83
2023/12/10 06:51:45;;;;;;;7.97;1.73;;;8.40;99.90;;;;;;5052569;28;20363;-82
2023/12/10 06:54:11;;;;;;;11.45;1.52;;;8.50;99.90;;;;;;5049986;28;20486;-83
2023/12/10 06:56:40;;;;;;;10.25;1.92;;;8.50;99.90;;;;;;5059978;28;20490;-82
2023/12/10 06:59:07;;;;;;;3.80;1.50;;;8.40;99.90;;;;;;5058789;28;20379;-83
2023/12/10 07:01:35;;;;;;;14.35;3.05;;;8.40;99.90;;;;;;5075734;28;20486;-83
2023/12/10 07:04:01;;;;;;;4.53;1.58;;;8.30;99.90;;;;;;5075314;28;20501;-83
2023/12/10 07:06:27;;;;;;;13.35;1.80;;;8.30;99.90;;;;;;5087922;28;20106;-83
2023/12/10 07:08:53;;;;;;;11.95;1.73;;;8.20;99.90;;;;;;5076219;28;22919;-83
2023/12/10 07:11:18;;;;;;;5.28;1.42;;;8.20;99.90;;;;;;5091967;28;20108;-82
2023/12/10 07:13:44;;;;;;;15.77;1.92;;;8.30;99.90;;;;;;5076642;28;20402;-83
2023/12/10 07:16:11;;;;;;;14.77;1.17;;;8.20;99.90;;;;;;5072852;28;20037;-84
2023/12/10 07:18:36;;;;;;;9.07;2.22;;;8.20;99.90;;;;;;5057736;28;20481;-84
2023/12/10 07:21:02;;;;;;;7.25;2.17;;;8.30;99.90;;;;;;5051881;28;20032;-84
2023/12/10 07:23:28;;;;;;;10.55;2.10;;;8.20;99.90;;;;;;5071735;28;20036;-83
2023/12/10 07:25:54;;;;;;;5.88;1.55;;;8.20;99.90;;;;;;5071964;28;20036;-83
2023/12/10 07:28:20;;;;;;;9.07;2.17;;;8.20;99.90;;;;;;5048611;28;20046;-83
2023/12/10 07:30:46;;;;;;;9.15;1.33;;;8.20;99.90;;;;;;5055111;28;20115;-83
2023/12/10 07:33:12;;;;;;;10.25;1.52;;;8.20;99.90;;;;;;5050200;28;20042;-83
2023/12/10 07:35:38;;;;;;;7.45;1.17;;;8.10;99.90;;;;;;5038759;28;20043;-84
2023/12/10 07:38:04;;;;;;;5.90;1.67;;;8.10;99.90;;;;;;5053810;28;20039;-84
2023/12/10 07:40:29;;;;;;;12.45;1.77;;;8.10;99.90;;;;;;5057912;28;20244;-83
2023/12/10 07:42:55;;;;;;;3.08;1.08;;;8.10;99.90;;;;;;5074068;28;20747;-83
2023/12/10 07:45:21;;;;;;;5.30;1.45;;;8.10;99.90;;;;;;5057953;28;20040;-83
2023/12/10 07:47:47;;;;;;;10.55;2.65;;;8.10;99.90;;;;;;5074566;28;20043;-83
2023/12/10 07:50:13;;;;;;;16.40;2.58;;;8.10;99.90;;;;;;5073960;28;20036;-83
2023/12/10 07:52:39;;;;;;;6.47;1.88;;;8.10;99.90;;;;;;5046637;28;20463;-83
2023/12/10 07:55:06;;;;;;;4.68;1.58;;;8.10;99.90;;;;;;5068185;28;20489;-84
2023/12/10 07:57:32;;;;;;;4.35;1.17;;;8.10;99.90;;;;;;5076080;28;20036;-83
2023/12/10 07:59:58;;;;;;;5.22;0.93;;;8.10;99.90;;;;;;5071235;28;20049;-83
2023/12/10 08:02:24;;;;;;;2.90;0.68;;;8.10;99.90;;;;;;5049613;28;20531;-83
2023/12/10 08:04:50;;;;;;;11.32;1.17;;;8.10;99.90;;;;;;5043810;28;20036;-83
2023/12/10 08:07:16;;;;;;;3.20;1.27;;;8.20;99.90;;;;;;5057172;28;20047;-83
2023/12/10 08:09:42;;;;;;;4.20;1.55;;;8.20;99.90;;;;;;5057534;28;20040;-83
2023/12/10 08:12:08;;;;;;;1.85;0.82;;;8.20;99.90;;;;;;5074385;28;20473;-83
2023/12/10 08:14:34;;;;;;;1.80;1.15;;;8.30;99.90;;;;;;5037368;28;20036;-83
2023/12/10 08:17:00;;;;;;;3.70;1.50;;;8.30;99.90;;;;;;5056347;28;20032;-83
2023/12/10 08:19:26;;;;;;;5.03;0.75;;;8.30;99.90;;;;;;5074454;28;20032;-83
2023/12/10 08:21:51;;;;;;;4.68;1.55;;;8.30;99.90;;;;;;5056069;28;20439;-83
2023/12/10 08:24:17;;;;;;;6.32;2.03;;;8.30;99.90;;;;;;5052808;28;20380;-83
2023/12/10 08:26:43;;;;;;;6.63;1.92;;;8.30;99.90;;;;;;5050899;28;20044;-83
2023/12/10 08:29:09;;;;;;;3.25;1.35;;;8.40;99.90;;;;;;5057499;28;20040;-83
2023/12/10 08:31:35;;;;;;;4.03;1.38;;;8.40;99.90;;;;;;5091737;28;20466;-83
2023/12/10 08:34:01;;;;;;;12.50;1.25;;;8.40;99.90;;;;;;5050067;28;20601;-84
2023/12/10 08:36:27;;;;;;;3.90;1.23;;;8.40;99.90;;;;;;5050185;28;20077;-85
2023/12/10 08:38:52;;;;;;;8.57;1.35;;;8.40;99.90;;;;;;5050157;28;20119;-85
2023/12/10 08:41:18;;;;;;;6.57;1.33;;;8.50;99.90;;;;;;5046389;28;20084;-85
2023/12/10 08:43:44;;;;;;;9.15;1.08;;;8.60;99.90;;;;;;5062538;28;20387;-84
2023/12/10 08:46:10;;;;;;;4.57;1.90;;;8.60;99.90;;;;;;5052885;28;20173;-85
2023/12/10 08:48:36;;;;;;;12.88;1.88;;;8.60;99.90;;;;;;5049535;28;20128;-85
2023/12/10 08:51:03;;;;;;;5.72;1.23;;;8.60;99.90;;;;;;5061029;28;20048;-85
2023/12/10 08:53:29;;;;;;;3.63;0.88;;;8.60;99.90;;;;;;5053231;28;20478;-85
2023/12/10 08:55:55;;;;;;;5.13;1.27;;;8.60;99.90;;;;;;5050084;28;20048;-84
2023/12/10 08:58:21;;;;;;;4.82;1.17;;;8.50;99.90;;;;;;5047958;28;20204;-84
2023/12/10 09:00:47;;;;;;;5.88;0.95;;;8.60;99.90;;;;;;5061488;28;20047;-84
2023/12/10 09:03:13;;;;;;;6.38;1.23;;;8.50;99.90;;;;;;5052167;28;20496;-84
2023/12/10 09:05:39;;;;;;;7.20;0.75;;;8.50;99.90;;;;;;5065918;28;20037;-84
2023/12/10 09:08:06;;;;;;;6.18;1.23;;;8.60;99.90;;;;;;5045534;28;20043;-84
2023/12/10 09:10:32;;;;;;;4.10;1.00;;;8.60;99.90;;;;;;5068865;28;20658;-84
2023/12/10 09:12:58;;;;;;;4.60;2.55;;;8.60;99.90;;;;;;5052999;28;20164;-84
2023/12/10 09:15:24;;;;;;;7.78;2.60;;;8.60;99.90;;;;;;5051119;28;20040;-83
2023/12/10 09:17:49;;;;;;;10.88;2.45;;;8.60;99.90;;;;;;5041778;28;20045;-83
2023/12/10 09:20:16;;;;;;;21.50;2.08;;;8.60;99.90;;;;;;5041450;28;20375;-84
2023/12/10 09:22:42;;;;;;;7.47;1.40;;;8.60;99.90;;;;;;5070720;28;20037;-84
2023/12/10 09:25:07;;;;;;;6.85;1.85;;;8.60;99.90;;;;;;5072963;28;20031;-82
2023/12/10 09:27:33;;;;;;;8.23;1.83;;;8.60;99.90;;;;;;5069708;28;20457;-84
2023/12/10 09:29:59;;;;;;;11.00;2.05;;;8.70;99.90;;;;;;5048376;28;20063;-84
2023/12/10 09:32:27;;;;;;;15.18;2.53;;;8.60;99.90;;;;;;5047159;28;20108;-84
2023/12/10 09:34:53;;;;;;;17.95;3.05;;;8.70;99.90;;;;;;5055727;28;20036;-84
2023/12/10 09:37:19;;;;;;;14.52;2.97;;;8.70;99.90;;;;;;5049596;28;20044;-84
2023/12/10 09:39:45;;;;;;;7.10;2.53;;;8.70;99.90;;;;;;5049296;28;20044;-84
2023/12/10 09:42:12;;;;;;;8.60;2.78;;;8.70;99.90;;;;;;5045034;28;20035;-84
2023/12/10 09:44:38;;;;;;;9.10;2.78;;;8.70;99.90;;;;;;5045429;28;20424;-84
2023/12/10 09:47:09;;;;;;;18.42;3.35;;;8.70;99.90;;;;;;5060047;28;20037;-84
2023/12/10 09:49:38;;;;;;;8.48;2.10;;;8.70;99.90;;;;;;5062912;28;20115;-84
2023/12/10 09:52:09;;;;;;;9.02;2.75;;;8.70;99.90;;;;;;5045692;28;20045;-84
2023/12/10 09:54:39;;;;;;;4.93;2.28;;;8.70;99.90;;;;;;5053230;28;20052;-84
2023/12/10 09:57:05;;;;;;;;;;;8.60;99.90;;;;;;5055481;28;20048;-84
2023/12/10 09:59:31;;;;;;;12.20;2.85;;;8.60;99.90;;;;;;5048177;28;19923;-84
2023/12/10 10:01:57;;;;;;;8.80;3.00;;;8.60;99.90;;;;;;5081926;28;20488;-83
2023/12/10 10:04:26;;;;;;;20.42;4.00;;;8.60;99.90;;;;;;5049899;28;20071;-83
2023/12/10 10:06:51;;;;;;;10.00;2.95;;;8.60;99.90;;;;;;5049107;28;20397;-84
2023/12/10 10:09:18;;;;;;;20.85;3.90;;;8.70;99.90;;;;;;5050192;28;20033;-83
2023/12/10 10:11:48;;;;;;;26.83;6.43;;;8.70;99.90;;;;;;5046382;28;20036;-84
2023/12/10 10:14:14;;;;;;;15.45;2.42;;;8.70;99.90;;;;;;5048177;28;20620;-84
2023/12/10 10:16:49;;;;;;;15.80;2.72;;;8.70;99.90;;;;;;5048461;28;20598;-85
2023/12/10 10:19:15;;;;;;;11.70;3.85;;;8.80;99.90;;;;;;5058256;28;20037;-85
2023/12/10 10:21:42;;;;;;;13.05;4.28;;;8.80;99.90;;;;;;5051032;28;20119;-85
2023/12/10 10:24:08;;;;;;;17.45;3.90;;;8.80;99.90;;;;;;5078235;28;20054;-85
2023/12/10 10:26:35;;;;;;;9.90;1.77;;;8.80;99.90;;;;;;5046294;28;20040;-85
2023/12/10 10:29:03;;;;;;;6.93;1.70;;;8.80;99.90;;;;;;5048328;28;20487;-85
2023/12/10 10:31:30;;;;;;;15.88;2.03;;;8.80;99.90;;;;;;5047536;28;20401;-84
2023/12/10 10:34:00;;;;;;;5.50;1.00;;;8.80;99.90;;;;;;5052628;28;20032;-85
2023/12/10 10:36:26;;;;;;;11.57;2.55;;;8.80;99.90;;;;;;5054909;28;20082;-85
2023/12/10 10:38:52;;;;;;;10.23;2.75;;;8.80;99.90;;;;;;5045126;28;20613;-84
2023/12/10 10:41:19;;;;;;;4.97;1.40;;;8.80;99.90;;;;;;5052460;28;20040;-84
2023/12/10 10:43:45;;;;;;;11.05;2.08;;;8.80;99.90;;;;;;5055854;28;20634;-84
2023/12/10 10:46:11;;;;;;;9.73;2.45;;;8.90;99.90;;;;;;5049982;28;20123;-84
2023/12/10 10:48:40;;;;;;;17.05;2.65;;;8.90;99.90;;;;;;5052252;28;20039;-83
2023/12/10 10:51:07;;;;;;;8.07;3.08;;;8.90;99.90;;;;;;5051638;28;20051;-82
2023/12/10 10:53:35;;;;;;;11.38;2.03;;;8.80;99.90;;;;;;5065491;28;20671;-84
2023/12/10 10:56:04;;;;;;;9.50;2.08;;;8.80;99.90;;;;;;5050342;28;20127;-83
2023/12/10 10:58:30;;;;;;;11.40;2.00;;;8.80;99.90;;;;;;5068442;28;20402;-83
2023/12/10 11:00:57;;;;;;;13.10;1.52;;;8.80;99.90;;;;;;5050390;28;20046;-83
2023/12/10 11:03:26;;;;;;;12.10;1.98;;;8.70;99.90;;;;;;5043220;28;20072;-83
2023/12/10 11:06:02;;;;;;;10.02;1.20;;;8.70;99.90;;;;;;5065998;28;20132;-83
2023/12/10 11:08:29;;;;;;;14.00;2.20;;;8.80;99.90;;;;;;5068201;28;20058;-83
2023/12/10 11:11:00;;;;;;;8.57;1.27;;;8.80;99.90;;;;;;5064408;28;20032;-82
2023/12/10 11:13:45;;;;;;;4.13;0.93;;;8.90;99.90;;;;;;5047850;28;20036;-82
2023/12/10 11:16:11;;;;;;;6.68;2.38;;;8.90;99.90;;;;;;5084586;28;20171;-83
2023/12/10 11:18:58;;;;;;;13.10;2.17;;;8.90;99.90;;;;;;5070068;28;20406;-83
2023/12/10 11:21:24;;;;;;;10.43;1.88;;;9.00;99.90;;;;;;5055807;28;20075;-82
2023/12/10 11:23:50;;;;;;;15.93;2.08;;;9.00;99.90;;;;;;5051620;28;20048;-83
2023/12/10 11:26:17;;;;;;;8.35;1.95;;;9.00;99.90;;;;;;5048915;28;20137;-82
2023/12/10 11:28:43;;;;;;;8.65;2.17;;;9.00;99.90;;;;;;5070025;28;20039;-82
2023/12/10 11:31:09;;;;;;;6.43;2.05;;;9.10;99.90;;;;;;5066972;28;20043;-83
2023/12/10 11:33:40;;;;;;;7.68;2.42;;;9.10;99.90;;;;;;5068166;28;20044;-83
2023/12/10 11:36:07;;;;;;;12.93;2.70;;;9.10;99.90;;;;;;5067848;28;20494;-82
2023/12/10 11:38:33;;;;;;;8.50;1.83;;;9.10;99.90;;;;;;5067182;28;20028;-82
2023/12/10 11:40:59;;;;;;;3.42;1.40;;;9.10;99.90;;;;;;5069118;28;20101;-82
2023/12/10 11:43:26;;;;;;;14.25;2.78;;;9.10;99.90;;;;;;5051162;28;20035;-82
2023/12/10 11:45:55;;;;;;;;;;;9.10;99.90;;;;;;5054019;28;20432;-82
2023/12/10 11:48:21;;;;;;;10.25;2.10;;;9.00;99.90;;;;;;5088967;28;19920;-83
2023/12/10 11:50:49;;;;;;;8.13;1.35;;;9.00;99.90;;;;;;5058504;28;20040;-83
2023/12/10 11:53:18;;;;;;;4.97;2.13;;;9.10;99.90;;;;;;5087231;28;20040;-83
2023/12/10 11:55:44;;;;;;;10.90;1.40;;;9.30;99.90;;;;;;5044780;28;20037;-83
2023/12/10 11:58:10;;;;;;;10.88;1.85;;;9.60;99.90;;;;;;5062530;28;20044;-83
2023/12/10 12:00:37;;;;;;;5.65;2.03;;;9.90;99.90;;;;;;5069355;28;21611;-83
2023/12/10 12:03:05;;;;;;;6.60;1.27;;;10.10;99.90;;;;;;5051719;28;20032;-83
2023/12/10 12:05:32;;;;;;;10.38;1.90;;;10.20;99.90;;;;;;5049782;28;20065;-83
2023/12/10 12:07:59;;;;;;;6.93;0.80;;;10.20;99.90;;;;;;5066053;28;20037;-83
2023/12/10 12:10:36;;;;;;;7.63;1.08;;;10.30;99.90;;;;;;5068948;28;20033;-82
2023/12/10 12:13:02;;;;;;;5.90;0.80;;;10.40;99.90;;;;;;5043995;28;20066;-82
2023/12/10 12:15:28;;;;;;;4.07;1.10;;;10.30;99.90;;;;;;5048737;28;20055;-82
2023/12/10 12:17:55;;;;;;;6.00;1.33;;;10.20;99.90;;;;;;5047304;28;20036;-82
2023/12/10 12:20:24;;;;;;;11.05;1.77;;;10.20;99.90;;;;;;5065130;28;20040;-82
2023/12/10 12:22:50;;;;;;;9.05;1.35;;;10.00;99.90;;;;;;5048154;28;20401;-82
2023/12/10 12:25:19;;;;;;;7.13;1.73;;;9.90;99.90;;;;;;5086170;28;20033;-82
2023/12/10 12:27:45;;;;;;;6.32;1.25;;;9.80;99.90;;;;;;5049700;28;20046;-82
2023/12/10 12:30:12;;;;;;;5.47;1.70;;;9.80;99.90;;;;;;5051982;28;20042;-82
2023/12/10 12:32:38;;;;;;;10.70;1.00;;;9.90;99.90;;;;;;5046442;28;20047;-82
2023/12/10 12:35:05;;;;;;;8.10;1.20;;;9.90;99.90;;;;;;5082799;28;20119;-82
2023/12/10 12:37:31;;;;;;;9.18;1.50;;;10.00;99.90;;;;;;5051485;28;20032;-84
2023/12/10 12:40:01;;;;;;;6.35;1.33;;;10.10;99.90;;;;;;5069197;28;20093;-83
2023/12/10 12:42:26;;;;;;;5.07;1.52;;;10.10;99.90;;;;;;5062850;28;20041;-82
2023/12/10 12:44:52;;;;;;;8.32;1.15;;;10.00;99.90;;;;;;5055188;28;20035;-82
2023/12/10 12:47:19;;;;;;;7.13;2.67;;;9.80;99.90;;;;;;5067113;28;20071;-83
2023/12/10 12:49:45;;;;;;;6.72;0.88;;;9.70;99.90;;;;;;5047134;28;20497;-82
2023/12/10 12:52:11;;;;;;;7.20;1.40;;;9.50;99.90;;;;;;5046672;28;20041;-83
2023/12/10 12:54:36;;;;;;;15.68;2.03;;;9.50;99.90;;;;;;5057918;28;20414;-83
2023/12/10 12:57:09;;;;;;;11.38;1.42;;;9.40;99.90;;;;;;5051678;28;20116;-82